createdAt,value
2019-05-02T00:01:43.034Z,69.56
2019-05-02T00:04:12.520Z,69.12
2019-05-02T00:06:37.967Z,69.09
2019-05-02T00:09:03.984Z,70.10
2019-05-02T00:11:28.719Z,70.45
2019-05-02T00:13:53.522Z,69.82
2019-05-02T00:16:18.852Z,69.89
2019-05-02T00:18:43.580Z,69.58
2019-05-02T00:21:09.098Z,69.45
2019-05-02T00:23:33.691Z,69.21
2019-05-02T00:25:58.197Z,67.59
2019-05-02T00:28:22.731Z,68.35
2019-05-02T00:30:47.261Z,68.25
2019-05-02T00:33:11.723Z,68.81
2019-05-02T00:35:36.183Z,68.91
2019-05-02T00:38:02.388Z,68.98
2019-05-02T00:40:27.766Z,68.50
2019-05-02T00:42:53.245Z,68.64
2019-05-02T00:45:23.431Z,68.57
2019-05-02T00:47:54.843Z,69.15
2019-05-02T00:50:19.685Z,68.10
2019-05-02T00:52:44.285Z,68.79
2019-05-02T00:55:08.994Z,68.12
2019-05-02T00:57:33.530Z,68.18
2019-05-02T00:59:58.104Z,68.54
2019-05-02T01:02:26.743Z,68.17
2019-05-02T01:04:51.302Z,67.54
2019-05-02T01:07:20.344Z,67.73
2019-05-02T01:09:46.768Z,68.57
2019-05-02T01:12:09.900Z,68.11
2019-05-02T01:14:34.590Z,68.23
2019-05-02T01:16:59.114Z,67.68
2019-05-02T01:19:23.657Z,67.54
2019-05-02T01:21:48.161Z,68.03
2019-05-02T01:24:12.628Z,68.00
2019-05-02T01:26:38.883Z,68.00
2019-05-02T01:29:17.021Z,67.22
2019-05-02T01:31:54.721Z,68.26
2019-05-02T01:34:19.724Z,68.12
2019-05-02T01:37:03.842Z,67.11
2019-05-02T01:39:28.492Z,67.47
2019-05-02T01:41:52.953Z,67.79
2019-05-02T01:44:17.426Z,68.57
2019-05-02T01:46:41.979Z,68.13
2019-05-02T01:49:06.887Z,67.41
2019-05-02T01:51:31.417Z,66.71
2019-05-02T01:53:55.950Z,67.04
2019-05-02T01:56:20.555Z,66.98
2019-05-02T01:58:45.018Z,67.91
2019-05-02T02:01:09.631Z,67.83
2019-05-02T02:03:34.248Z,67.33
2019-05-02T02:06:02.776Z,67.51
2019-05-02T02:08:27.240Z,67.46
2019-05-02T02:10:56.093Z,67.40
2019-05-02T02:13:17.484Z,67.74
2019-05-02T02:15:42.021Z,66.91
2019-05-02T02:18:06.622Z,66.98
2019-05-02T02:20:45.134Z,66.50
2019-05-02T02:23:25.833Z,65.21
2019-05-02T02:25:52.087Z,66.37
2019-05-02T02:28:16.533Z,67.62
2019-05-02T02:30:41.081Z,66.86
2019-05-02T02:33:07.446Z,67.73
2019-05-02T02:35:31.960Z,68.23
2019-05-02T02:37:56.439Z,68.63
2019-05-02T02:40:20.972Z,69.29
2019-05-02T02:42:45.532Z,69.12
2019-05-02T02:45:18.527Z,68.50
2019-05-02T02:47:39.626Z,69.33
2019-05-02T02:50:05.368Z,67.44
2019-05-02T02:52:30.155Z,67.81
2019-05-02T02:54:54.692Z,67.58
2019-05-02T02:57:25.843Z,68.87
2019-05-02T02:59:45.321Z,68.47
2019-05-02T03:02:12.045Z,69.26
2019-05-02T03:04:36.005Z,69.55
2019-05-02T03:07:00.605Z,69.78
2019-05-02T03:09:26.472Z,69.38
2019-05-02T03:12:09.469Z,70.07
2019-05-02T03:14:40.927Z,69.87
2019-05-02T03:17:02.127Z,69.91
2019-05-02T03:19:26.758Z,69.50
2019-05-02T03:22:00.312Z,70.23
2019-05-02T03:24:20.522Z,69.63
2019-05-02T03:26:48.751Z,70.50
2019-05-02T03:29:11.542Z,70.78
2019-05-02T03:31:37.163Z,70.66
2019-05-02T03:34:01.882Z,70.05
2019-05-02T03:36:30.421Z,70.92
2019-05-02T03:38:53.358Z,70.73
2019-05-02T03:41:20.897Z,71.04
2019-05-02T03:43:44.506Z,70.09
2019-05-02T03:46:13.760Z,70.45
2019-05-02T03:48:35.327Z,71.28
2019-05-02T03:50:59.942Z,70.54
2019-05-02T03:53:25.967Z,70.52
2019-05-02T03:55:50.854Z,70.15
2019-05-02T03:58:17.110Z,70.77
2019-05-02T04:00:41.884Z,70.31
2019-05-02T04:03:06.429Z,71.34
2019-05-02T04:05:33.771Z,70.72
2019-05-02T04:07:57.387Z,70.62
2019-05-02T04:10:44.504Z,71.23
2019-05-02T04:13:09.803Z,70.92
2019-05-02T04:15:37.526Z,70.78
2019-05-02T04:18:01.914Z,70.83
2019-05-02T04:20:26.690Z,71.12
2019-05-02T04:22:51.295Z,70.05
2019-05-02T04:25:15.764Z,70.46
2019-05-02T04:27:41.583Z,71.04
2019-05-02T04:30:11.178Z,71.12
2019-05-02T04:32:33.351Z,71.24
2019-05-02T04:34:58.145Z,71.57
2019-05-02T04:37:22.740Z,71.22
2019-05-02T04:39:49.161Z,70.36
2019-05-02T04:42:19.651Z,70.72
2019-05-02T04:44:47.884Z,70.44
2019-05-02T04:47:17.442Z,70.69
2019-05-02T04:49:35.633Z,71.37
2019-05-02T04:52:06.105Z,71.65
2019-05-02T04:54:31.313Z,70.95
2019-05-02T04:56:55.107Z,70.71
2019-05-02T04:59:21.864Z,70.96
2019-05-02T05:01:52.769Z,70.74
2019-05-02T05:04:09.300Z,70.18
2019-05-02T05:06:33.793Z,70.43
2019-05-02T05:08:58.594Z,70.37
2019-05-02T05:11:24.940Z,71.61
2019-05-02T05:13:52.426Z,71.42
2019-05-02T05:16:15.887Z,70.76
2019-05-02T05:18:44.015Z,71.12
2019-05-02T05:21:10.569Z,71.16
2019-05-02T05:23:35.758Z,70.59
2019-05-02T05:26:03.522Z,70.92
2019-05-02T05:28:27.278Z,71.76
2019-05-02T05:30:52.164Z,72.35
2019-05-02T05:33:18.336Z,72.37
2019-05-02T05:35:43.346Z,72.18
2019-05-02T05:38:09.254Z,72.34
2019-05-02T05:40:34.058Z,72.07
2019-05-02T05:43:02.139Z,72.74
2019-05-02T05:45:24.991Z,72.00
2019-05-02T05:47:52.309Z,72.15
2019-05-02T05:50:17.583Z,72.99
2019-05-02T05:52:42.576Z,72.88
2019-05-02T05:55:07.890Z,71.72
2019-05-02T05:57:32.472Z,71.25
2019-05-02T05:59:58.411Z,71.55
2019-05-02T06:02:23.144Z,71.55
2019-05-02T06:04:50.120Z,70.94
2019-05-02T06:07:13.828Z,71.43
2019-05-02T06:09:38.290Z,71.56
2019-05-02T06:12:02.756Z,71.18
2019-05-02T06:14:27.243Z,71.07
2019-05-02T06:16:53.187Z,71.04
2019-05-02T06:19:19.068Z,71.67
2019-05-02T06:21:45.085Z,71.17
2019-05-02T06:24:10.963Z,71.85
2019-05-02T06:26:35.785Z,72.59
2019-05-02T06:29:00.278Z,72.43
2019-05-02T06:31:24.810Z,72.91
2019-05-02T06:33:49.352Z,73.21
2019-05-02T06:36:13.893Z,72.95
2019-05-02T06:38:38.433Z,73.72
2019-05-02T06:41:03.030Z,73.29
2019-05-02T06:43:27.570Z,74.05
2019-05-02T06:45:52.033Z,73.82
2019-05-02T06:48:17.733Z,73.83
2019-05-02T06:50:42.702Z,73.24
2019-05-02T06:53:09.755Z,72.91
2019-05-02T06:55:36.504Z,73.71
2019-05-02T06:58:02.902Z,74.16
2019-05-02T07:00:35.581Z,73.58
2019-05-02T07:02:51.976Z,73.72
2019-05-02T07:05:16.445Z,72.95
2019-05-02T07:07:40.949Z,72.74
2019-05-02T07:10:07.650Z,73.38
2019-05-02T07:12:32.167Z,72.39
2019-05-02T07:15:01.523Z,73.21
2019-05-02T07:17:26.644Z,74.24
2019-05-02T07:19:52.501Z,73.86
2019-05-02T07:22:17.138Z,72.96
2019-05-02T07:24:41.681Z,73.81
2019-05-02T07:27:06.311Z,73.69
2019-05-02T07:29:30.784Z,73.71
2019-05-02T07:31:55.370Z,73.29
2019-05-02T07:34:19.861Z,73.53
2019-05-02T07:36:44.333Z,74.20
2019-05-02T07:39:10.819Z,73.94
2019-05-02T07:41:37.210Z,73.03
2019-05-02T07:44:04.335Z,73.32
2019-05-02T07:46:27.838Z,72.80
2019-05-02T07:48:54.677Z,72.78
2019-05-02T07:51:21.321Z,73.34
2019-05-02T07:53:48.539Z,73.60
2019-05-02T07:56:12.402Z,74.31
2019-05-02T07:58:38.515Z,74.03
2019-05-02T08:01:03.452Z,73.62
2019-05-02T08:03:33.579Z,74.36
2019-05-02T08:05:58.669Z,73.01
2019-05-02T08:08:25.105Z,73.20
2019-05-02T08:10:53.369Z,73.20
2019-05-02T08:13:17.467Z,73.90
2019-05-02T08:15:45.563Z,73.82
2019-05-02T08:18:08.311Z,73.58
2019-05-02T08:20:32.840Z,73.03
2019-05-02T08:22:57.315Z,73.56
2019-05-02T08:25:21.879Z,73.30
2019-05-02T08:27:47.980Z,73.23
2019-05-02T08:30:15.516Z,72.70
2019-05-02T08:32:40.123Z,72.41
2019-05-02T08:35:06.932Z,71.91
2019-05-02T08:37:35.265Z,72.84
2019-05-02T08:39:57.644Z,72.15
2019-05-02T08:42:22.109Z,73.34
2019-05-02T08:44:51.239Z,73.01
2019-05-02T08:47:19.159Z,72.87
2019-05-02T08:49:38.979Z,72.71
2019-05-02T08:52:03.597Z,73.17
2019-05-02T08:54:32.691Z,73.14
2019-05-02T08:56:59.161Z,73.86
2019-05-02T08:59:24.440Z,74.24
2019-05-02T09:01:49.500Z,74.05
2019-05-02T09:04:12.771Z,73.91
2019-05-02T09:06:37.254Z,73.08
2019-05-02T09:09:01.791Z,72.74
2019-05-02T09:11:26.325Z,72.72
2019-05-02T09:13:52.594Z,73.15
2019-05-02T09:16:23.650Z,74.29
2019-05-02T09:18:50.617Z,75.19
2019-05-02T09:21:09.636Z,74.62
2019-05-02T09:23:37.007Z,74.63
2019-05-02T09:26:02.429Z,74.09
2019-05-02T09:28:26.569Z,74.27
2019-05-02T09:30:52.417Z,73.87
2019-05-02T09:33:16.953Z,73.09
2019-05-02T09:35:42.189Z,73.53
2019-05-02T09:38:06.829Z,74.62
2019-05-02T09:40:31.927Z,74.35
2019-05-02T09:43:01.766Z,74.04
2019-05-02T09:45:27.919Z,74.50
2019-05-02T09:47:57.329Z,74.09
2019-05-02T09:50:20.619Z,73.25
2019-05-02T09:52:44.266Z,73.24
2019-05-02T09:55:11.998Z,73.60
2019-05-02T09:57:36.412Z,73.78
2019-05-02T10:00:02.162Z,74.03
2019-05-02T10:02:26.856Z,74.12
2019-05-02T10:04:52.372Z,74.21
2019-05-02T10:07:17.082Z,74.70
2019-05-02T10:09:42.440Z,74.51
2019-05-02T10:12:07.081Z,73.57
2019-05-02T10:14:33.109Z,72.96
2019-05-02T10:17:02.160Z,73.65
2019-05-02T10:19:25.995Z,72.86
2019-05-02T10:21:54.359Z,72.54
2019-05-02T10:24:16.565Z,72.91
2019-05-02T10:26:41.914Z,72.97
2019-05-02T10:29:06.606Z,72.89
2019-05-02T10:31:35.741Z,73.29
2019-05-02T10:33:57.383Z,72.94
2019-05-02T10:36:24.039Z,73.17
2019-05-02T10:38:49.076Z,73.38
2019-05-02T10:41:14.447Z,73.55
2019-05-02T10:43:38.902Z,73.94
2019-05-02T10:46:12.551Z,73.21
2019-05-02T10:48:38.787Z,73.67
2019-05-02T10:51:08.010Z,73.92
2019-05-02T10:53:32.573Z,73.10
2019-05-02T10:55:57.129Z,71.85
2019-05-02T10:58:26.189Z,72.66
2019-05-02T11:00:47.999Z,72.41
2019-05-02T11:03:22.408Z,72.55
2019-05-02T11:05:58.076Z,71.78
2019-05-02T11:08:22.456Z,72.29
2019-05-02T11:10:47.256Z,72.23
2019-05-02T11:13:16.051Z,71.83
2019-05-02T11:15:58.426Z,71.97
2019-05-02T11:18:39.433Z,72.36
2019-05-02T11:20:52.485Z,71.80
2019-05-02T11:23:17.078Z,71.31
2019-05-02T11:25:42.160Z,71.33
2019-05-02T11:28:07.305Z,71.49
2019-05-02T11:30:32.087Z,70.92
2019-05-02T11:32:56.564Z,70.90
2019-05-02T11:35:22.404Z,70.49
2019-05-02T11:37:47.119Z,70.49
2019-05-02T11:40:12.891Z,69.80
2019-05-02T11:42:37.569Z,69.11
2019-05-02T11:45:02.801Z,68.38
2019-05-02T11:47:27.332Z,67.95
2019-05-02T11:49:55.732Z,67.58
2019-05-02T11:52:18.044Z,67.12
2019-05-02T11:54:44.689Z,66.13
2019-05-02T11:57:08.766Z,65.50
2019-05-02T11:59:33.254Z,66.05
2019-05-02T12:02:09.469Z,65.91
2019-05-02T12:04:34.589Z,65.88
2019-05-02T12:07:01.560Z,64.97
2019-05-02T12:09:25.289Z,65.10
2019-05-02T12:11:52.760Z,65.47
2019-05-02T12:14:16.037Z,64.64
2019-05-02T12:16:40.633Z,65.41
2019-05-02T12:19:11.419Z,65.45
2019-05-02T12:21:32.466Z,65.12
2019-05-02T12:23:57.193Z,64.59
2019-05-02T12:26:22.167Z,64.86
2019-05-02T12:28:46.749Z,65.12
2019-05-02T12:31:16.705Z,64.61
2019-05-02T12:33:42.627Z,63.76
2019-05-02T12:36:11.889Z,62.21
2019-05-02T12:38:36.280Z,62.71
2019-05-02T12:41:02.570Z,62.45
2019-05-02T12:43:27.121Z,62.39
2019-05-02T12:45:52.790Z,62.62
2019-05-02T12:48:22.039Z,63.37
2019-05-02T12:50:46.610Z,63.14
2019-05-02T12:53:12.598Z,63.47
2019-05-02T12:55:37.342Z,63.64
2019-05-02T12:58:03.120Z,62.79
2019-05-02T13:00:27.713Z,60.77
2019-05-02T13:02:56.717Z,60.68
2019-05-02T13:05:22.249Z,60.95
2019-05-02T13:07:50.805Z,61.63
2019-05-02T13:10:15.388Z,61.43
2019-05-02T13:12:41.914Z,60.90
2019-05-02T13:15:07.850Z,60.21
2019-05-02T13:17:35.708Z,60.07
2019-05-02T13:20:03.133Z,61.38
2019-05-02T13:22:29.544Z,60.34
2019-05-02T13:24:56.383Z,59.81
2019-05-02T13:27:22.792Z,58.34
2019-05-02T13:29:48.417Z,59.26
2019-05-02T13:32:21.759Z,59.53
2019-05-02T13:34:57.300Z,60.30
2019-05-02T13:37:22.907Z,60.03
2019-05-02T13:40:05.347Z,60.30
2019-05-02T13:42:29.960Z,61.31
2019-05-02T13:44:56.217Z,61.34
2019-05-02T13:47:25.256Z,61.49
2019-05-02T13:49:54.090Z,61.64
2019-05-02T13:52:16.145Z,60.80
2019-05-02T13:54:42.575Z,61.75
2019-05-02T13:57:07.719Z,61.04
2019-05-02T13:59:33.746Z,62.32
2019-05-02T14:02:02.775Z,61.70
2019-05-02T14:04:27.416Z,62.32
2019-05-02T14:06:52.853Z,63.13
2019-05-02T14:09:22.538Z,63.82
2019-05-02T14:12:07.198Z,64.21
2019-05-02T14:14:32.629Z,63.93
2019-05-02T14:16:57.200Z,64.91
2019-05-02T14:19:22.261Z,64.72
2019-05-02T14:21:47.000Z,65.09
2019-05-02T14:24:11.910Z,66.60
2019-05-02T14:26:36.469Z,67.26
2019-05-02T14:29:02.558Z,68.29
2019-05-02T14:31:27.182Z,69.18
2019-05-02T14:34:09.663Z,71.25
2019-05-02T14:36:34.145Z,71.62
2019-05-02T14:38:58.612Z,71.67
2019-05-02T14:41:24.841Z,73.24
2019-05-02T14:43:53.220Z,73.17
2019-05-02T14:46:17.983Z,73.73
2019-05-02T14:48:45.291Z,74.89
2019-05-02T14:51:11.874Z,74.59
2019-05-02T14:53:36.967Z,73.63
2019-05-02T14:56:06.145Z,72.97
2019-05-02T14:58:29.472Z,72.31
2019-05-02T15:00:55.843Z,72.37
2019-05-02T15:03:24.520Z,71.79
2019-05-02T15:05:46.506Z,71.80
2019-05-02T15:08:11.857Z,71.57
2019-05-02T15:10:49.391Z,73.82
2019-05-02T15:13:03.913Z,73.30
2019-05-02T15:15:33.983Z,75.01
2019-05-02T15:17:54.772Z,74.78
2019-05-02T15:20:19.415Z,74.28
2019-05-02T15:22:43.958Z,73.69
2019-05-02T15:25:13.645Z,73.91
2019-05-02T15:27:41.845Z,73.47
2019-05-02T15:30:06.916Z,73.10
2019-05-02T15:32:46.396Z,73.06
2019-05-02T15:35:23.111Z,71.83
2019-05-02T15:37:44.294Z,72.37
2019-05-02T15:42:37.468Z,73.38
2019-05-02T15:45:05.640Z,73.41
2019-05-02T15:47:28.358Z,73.54
2019-05-02T15:49:52.947Z,72.17
2019-05-02T15:52:24.250Z,71.55
2019-05-02T15:54:45.789Z,71.55
2019-05-02T15:57:10.266Z,72.58
2019-05-02T15:59:42.433Z,72.52
2019-05-02T16:02:03.096Z,72.51
2019-05-02T16:04:29.233Z,72.50
2019-05-02T16:06:53.795Z,73.37
2019-05-02T16:09:18.275Z,73.42
2019-05-02T16:11:43.454Z,73.14
2019-05-02T16:14:07.983Z,72.49
2019-05-02T16:16:36.622Z,72.50
2019-05-02T16:18:58.686Z,72.90
2019-05-02T16:21:30.128Z,72.40
2019-05-02T16:24:14.785Z,72.05
2019-05-02T16:26:42.760Z,71.62
2019-05-02T16:29:05.134Z,71.46
2019-05-02T16:31:31.618Z,71.75
2019-05-02T16:33:57.476Z,72.33
2019-05-02T16:36:26.011Z,72.94
2019-05-02T16:38:48.400Z,72.04
2019-05-02T16:41:12.938Z,71.98
2019-05-02T16:43:37.420Z,71.95
2019-05-02T16:46:02.000Z,70.61
2019-05-02T16:48:30.564Z,71.08
2019-05-02T16:50:52.690Z,71.47
2019-05-02T16:53:21.877Z,70.91
2019-05-02T16:55:43.716Z,70.56
2019-05-02T16:58:08.182Z,69.78
2019-05-02T17:00:36.873Z,71.06
2019-05-02T17:02:58.960Z,70.52
2019-05-02T17:05:23.583Z,70.39
2019-05-02T17:07:53.010Z,69.78
2019-05-02T17:10:19.383Z,69.58
2019-05-02T17:12:47.323Z,69.81
2019-05-02T17:15:31.425Z,70.67
2019-05-02T17:17:54.500Z,69.80
2019-05-02T17:20:19.089Z,69.85
2019-05-02T17:22:44.488Z,70.53
2019-05-02T17:25:10.144Z,70.85
2019-05-02T17:27:34.762Z,70.72
2019-05-02T17:30:00.688Z,70.51
2019-05-02T17:32:28.837Z,70.65
2019-05-02T17:34:52.606Z,70.92
2019-05-02T17:37:17.134Z,71.08
2019-05-02T17:39:42.759Z,69.67
2019-05-02T17:42:07.842Z,70.21
2019-05-02T17:44:32.320Z,70.36
2019-05-02T17:46:58.121Z,70.23
2019-05-02T17:49:30.435Z,70.16
2019-05-02T17:52:11.225Z,71.27
2019-05-02T17:54:33.481Z,72.06
2019-05-02T17:56:59.177Z,71.46
2019-05-02T17:59:28.216Z,71.09
2019-05-02T18:01:50.035Z,72.10
2019-05-02T18:04:16.459Z,72.88
2019-05-02T18:06:41.718Z,72.80
2019-05-02T18:09:07.374Z,73.40
2019-05-02T18:11:36.428Z,73.37
2019-05-02T18:13:58.256Z,73.75
2019-05-02T18:16:22.744Z,73.65
2019-05-02T18:18:47.292Z,73.37
2019-05-02T18:21:12.762Z,72.32
2019-05-02T18:23:37.466Z,72.63
2019-05-02T18:26:05.020Z,73.13
2019-05-02T18:28:28.226Z,71.00
2019-05-02T18:30:57.047Z,71.03
2019-05-02T18:33:18.870Z,73.22
2019-05-02T18:35:46.898Z,75.67
2019-05-02T18:38:09.713Z,77.67
2019-05-02T18:40:34.404Z,78.04
2019-05-02T18:43:02.194Z,77.59
2019-05-02T18:45:28.480Z,77.34
2019-05-02T18:47:53.970Z,76.32
2019-05-02T18:50:31.969Z,76.92
2019-05-02T18:52:56.775Z,77.17
2019-05-02T18:55:23.162Z,76.89
2019-05-02T18:57:47.536Z,77.38
2019-05-02T19:00:12.368Z,77.35
2019-05-02T19:02:36.903Z,77.50
2019-05-02T19:05:01.998Z,76.49
2019-05-02T19:07:33.069Z,77.20
2019-05-02T19:09:53.970Z,77.80
2019-05-02T19:12:22.259Z,78.05
2019-05-02T19:14:44.923Z,77.99
2019-05-02T19:17:09.399Z,78.63
2019-05-02T19:19:36.832Z,77.77
2019-05-02T19:22:00.122Z,78.98
2019-05-02T19:24:27.524Z,78.87
2019-05-02T19:26:53.264Z,79.42
2019-05-02T19:29:24.934Z,78.32
2019-05-02T19:31:49.484Z,78.77
2019-05-02T19:34:16.970Z,77.53
2019-05-02T19:36:41.683Z,77.73
2019-05-02T19:39:09.929Z,76.01
2019-05-02T19:41:39.031Z,75.36
2019-05-02T19:44:02.308Z,76.06
2019-05-02T19:46:34.516Z,75.67
2019-05-02T19:48:53.419Z,74.34
2019-05-02T19:51:18.863Z,73.34
2019-05-02T19:53:44.193Z,72.42
2019-05-02T19:56:08.811Z,70.23
2019-05-02T19:58:36.877Z,70.78
2019-05-02T20:01:02.054Z,69.59
2019-05-02T20:03:26.345Z,68.69
2019-05-02T20:05:51.890Z,68.81
2019-05-02T20:08:21.486Z,68.37
2019-05-02T20:10:42.831Z,67.75
2019-05-02T20:13:07.437Z,66.61
2019-05-02T20:15:33.633Z,67.05
2019-05-02T20:18:00.526Z,67.11
2019-05-02T20:20:43.565Z,68.02
2019-05-02T20:23:15.520Z,67.17
2019-05-02T20:25:38.958Z,66.46
2019-05-02T20:28:01.983Z,67.46
2019-05-02T20:30:26.495Z,67.19
2019-05-02T20:32:51.801Z,67.15
2019-05-02T20:35:16.408Z,68.70
2019-05-02T20:37:41.966Z,68.27
2019-05-02T20:40:07.370Z,68.19
2019-05-02T20:42:32.233Z,66.45
2019-05-02T20:44:56.844Z,66.82
2019-05-02T20:47:23.818Z,67.46
2019-05-02T20:49:48.447Z,66.46
2019-05-02T20:52:13.098Z,67.15
2019-05-02T20:54:37.658Z,68.39
2019-05-02T20:57:02.570Z,69.08
2019-05-02T20:59:27.288Z,68.92
2019-05-02T21:01:52.376Z,69.70
2019-05-02T21:04:17.029Z,68.49
2019-05-02T21:06:44.078Z,69.46
2019-05-02T21:09:11.497Z,69.61
2019-05-02T21:11:36.234Z,69.04
2019-05-02T21:14:01.670Z,68.23
2019-05-02T21:16:26.464Z,71.02
2019-05-02T21:18:50.942Z,71.50
2019-05-02T21:21:15.527Z,72.00
2019-05-02T21:23:44.829Z,71.76
2019-05-02T21:26:06.343Z,73.07
2019-05-02T21:28:32.165Z,73.16
2019-05-02T21:30:56.822Z,73.79
2019-05-02T21:33:36.665Z,73.85
2019-05-02T21:36:01.847Z,72.92
2019-05-02T21:38:26.324Z,73.22
2019-05-02T21:40:52.557Z,73.68
2019-05-02T21:43:17.251Z,73.08
2019-05-02T21:45:42.166Z,73.03
2019-05-02T21:48:06.701Z,73.33
2019-05-02T21:50:32.854Z,74.32
2019-05-02T21:53:15.501Z,74.07
2019-05-02T21:55:44.479Z,74.34
2019-05-02T21:58:09.096Z,73.80
2019-05-02T22:00:35.392Z,74.01
2019-05-02T22:03:01.545Z,74.69
2019-05-02T22:05:26.059Z,75.62
2019-05-02T22:07:52.295Z,75.84
2019-05-02T22:10:16.931Z,76.06
2019-05-02T22:12:42.222Z,76.17
2019-05-02T22:15:07.201Z,76.17
2019-05-02T22:17:32.216Z,75.70
2019-05-02T22:19:56.959Z,75.23
2019-05-02T22:22:22.829Z,75.87
2019-05-02T22:24:47.676Z,76.30
2019-05-02T22:27:12.485Z,76.34
2019-05-02T22:29:36.996Z,75.83
2019-05-02T22:32:02.962Z,75.65
2019-05-02T22:34:27.825Z,76.32
2019-05-02T22:36:54.299Z,76.67
2019-05-02T22:39:23.185Z,76.07
2019-05-02T22:41:47.652Z,75.55
2019-05-02T22:44:12.537Z,75.75
2019-05-02T22:46:43.207Z,75.55
2019-05-02T22:49:07.449Z,75.27
2019-05-02T22:51:32.091Z,74.37
2019-05-02T22:53:56.571Z,75.23
2019-05-02T22:56:22.243Z,74.27
2019-05-02T22:58:46.706Z,74.30
2019-05-02T23:01:11.271Z,73.60
2019-05-02T23:03:35.841Z,74.70
2019-05-02T23:06:01.775Z,74.84
2019-05-02T23:08:26.339Z,74.75
2019-05-02T23:10:51.950Z,73.79
2019-05-02T23:13:16.646Z,74.54
2019-05-02T23:15:42.692Z,73.68
2019-05-02T23:18:07.319Z,73.62
2019-05-02T23:20:32.939Z,72.30
2019-05-02T23:22:57.806Z,72.86
2019-05-02T23:25:23.904Z,72.10
2019-05-02T23:27:56.075Z,72.12
2019-05-02T23:30:22.607Z,71.08
2019-05-02T23:32:47.151Z,69.42
2019-05-02T23:35:11.777Z,67.41
2019-05-02T23:37:36.351Z,65.34
2019-05-02T23:40:02.014Z,65.63
2019-05-02T23:42:26.580Z,66.12
2019-05-02T23:44:51.929Z,66.55
2019-05-02T23:47:16.552Z,67.38
2019-05-02T23:49:42.713Z,67.55
2019-05-02T23:52:07.382Z,67.22
2019-05-02T23:54:32.496Z,68.00
2019-05-02T23:56:57.644Z,68.49
2019-05-02T23:59:22.471Z,67.06
